MDSD/SDQ METAR and TAF weather

Enter ICAO airport designator
Station Type Date Time Source
MDSD METAR 2019/02/16 17:00 UTC NOAA

MDSD 161700Z 16007KT 9999 SCT020 31/24 Q1015


Station Type Date Time Source
MDSD Decoded METAR 2019/02/16 17:00 UTC NOAA

Las Americas, Dominican Republic (MDSD) 18-26N 069-40W
Feb 16, 2019 - 12:00 PM EST / 2019.02.16 1700 UTC
Wind: from the SSE (160 degrees) at 8 MPH (7 KT):0
Visibility: greater than 7 mile(s):0
Sky conditions: partly cloudy
Temperature: 87 F (31 C)
Heat index: 95.7 F (35.4 C):1
Dew Point: 75 F (24 C)
Relative Humidity: 66%
Pressure (altimeter): 29.97 in. Hg (1015 hPa)
ob: MDSD 161700Z 16007KT 9999 SCT020 31/24 Q1015
cycle: 17

Station Type Date Time Source
MDSD TAF 2019/02/16 18:54 UTC NOAA

TAF MDSD 161600Z 1618/1718 19010KT 9999 BKN022
BECMG 1706/1708 06004KT


Example: see airport list